createdAt,value
2022-08-05T00:00:25.838Z,94841.53
2022-08-05T00:01:27.880Z,94834.59
2022-08-05T00:02:25.555Z,94812.28
2022-08-05T00:03:22.317Z,94836.22
2022-08-05T00:04:18.976Z,94717.66
2022-08-05T00:06:03.006Z,94849.59
2022-08-05T00:06:35.912Z,94847.97
2022-08-05T00:08:01.131Z,94839.75
2022-08-05T00:08:49.796Z,94832.50
2022-08-05T00:09:49.771Z,94814.91
2022-08-05T00:10:46.622Z,94833.53
2022-08-05T00:11:49.488Z,94831.94
2022-08-05T00:12:56.620Z,94834.09
2022-08-05T00:13:54.874Z,94730.97
2022-08-05T00:14:51.987Z,94828.44
2022-08-05T00:15:55.999Z,94782.09
2022-08-05T00:16:55.022Z,94817.19
2022-08-05T00:17:51.776Z,94824.13
2022-08-05T00:18:50.093Z,94835.91
2022-08-05T00:20:02.411Z,94751.72
2022-08-05T00:20:59.866Z,94823.94
2022-08-05T00:21:56.617Z,94819.91
2022-08-05T00:22:57.461Z,94723.22
2022-08-05T00:24:10.057Z,94833.47
2022-08-05T00:25:08.395Z,94804.16
2022-08-05T00:26:10.020Z,94826.28
2022-08-05T00:27:10.550Z,94806.84
2022-08-05T00:28:11.085Z,94828.44
2022-08-05T00:29:09.586Z,94824.97
2022-08-05T00:30:11.372Z,94845.50
2022-08-05T00:31:08.478Z,94821.25
2022-08-05T00:32:12.765Z,94683.22
2022-08-05T00:34:41.985Z,94823.91
2022-08-05T00:34:56.660Z,94839.38
2022-08-05T00:35:47.929Z,94720.06
2022-08-05T00:37:12.380Z,94826.34
2022-08-05T00:38:10.861Z,94831.16
2022-08-05T00:39:13.976Z,94811.72
2022-08-05T00:40:11.517Z,94813.00
2022-08-05T00:41:11.946Z,94828.75
2022-08-05T00:42:08.984Z,94788.81
2022-08-05T00:43:07.688Z,94815.41
2022-08-05T00:44:05.086Z,94804.47
2022-08-05T00:45:04.578Z,94807.13
2022-08-05T00:46:01.299Z,94801.56
2022-08-05T00:47:03.696Z,94814.38
2022-08-05T00:48:05.649Z,94785.59
2022-08-05T00:49:02.951Z,94776.81
2022-08-05T00:49:59.637Z,94815.97
2022-08-05T00:50:56.711Z,94818.16
2022-08-05T00:51:53.513Z,94799.50
2022-08-05T00:52:50.309Z,94825.63
2022-08-05T00:54:02.406Z,94805.38
2022-08-05T00:54:59.993Z,94806.97
2022-08-05T00:55:57.522Z,94818.44
2022-08-05T00:56:54.234Z,94820.28
2022-08-05T00:57:58.621Z,94818.41
2022-08-05T00:58:56.078Z,94826.16
2022-08-05T00:59:53.609Z,94803.22
2022-08-05T01:00:50.463Z,94766.69
2022-08-05T01:01:48.983Z,94806.47
2022-08-05T01:02:46.115Z,94827.25
2022-08-05T01:03:43.136Z,94797.38
2022-08-05T01:04:50.379Z,94725.44
2022-08-05T01:05:47.743Z,94825.09
2022-08-05T01:06:48.571Z,94824.81
2022-08-05T01:08:30.812Z,94806.63
2022-08-05T01:09:03.115Z,94803.69
2022-08-05T01:10:00.301Z,94787.22
2022-08-05T01:11:04.702Z,94798.41
2022-08-05T01:12:17.892Z,94778.69
2022-08-05T01:13:27.442Z,94809.13
2022-08-05T01:14:52.071Z,94814.72
2022-08-05T01:15:58.666Z,94789.41
2022-08-05T01:17:05.489Z,94813.44
2022-08-05T01:18:09.687Z,94810.75
2022-08-05T01:19:36.582Z,94816.06
2022-08-05T01:21:12.509Z,94816.59
2022-08-05T01:22:31.831Z,94803.50
2022-08-05T01:23:45.829Z,94802.19
2022-08-05T01:25:14.036Z,94812.34
2022-08-05T01:26:50.755Z,94682.28
2022-08-05T01:28:18.078Z,94808.34
2022-08-05T01:29:25.079Z,94806.47
2022-08-05T01:30:34.353Z,94702.53
2022-08-05T01:31:45.100Z,94827.81
2022-08-05T01:32:46.943Z,94814.47
2022-08-05T01:34:12.339Z,94817.41
2022-08-05T01:35:51.557Z,94812.34
2022-08-05T01:36:47.041Z,94763.28
2022-08-05T01:37:51.405Z,94820.91
2022-08-05T01:38:51.928Z,94712.94
2022-08-05T01:39:54.828Z,94810.19
2022-08-05T01:40:59.998Z,94819.81
2022-08-05T01:42:01.945Z,94802.50
2022-08-05T01:43:03.580Z,94826.75
2022-08-05T01:44:02.110Z,94820.88
2022-08-05T01:45:02.269Z,94829.16
2022-08-05T01:46:07.467Z,94831.03
2022-08-05T01:47:22.405Z,94831.06
2022-08-05T01:48:22.298Z,94775.56
2022-08-05T01:49:24.959Z,94830.75
2022-08-05T01:50:32.225Z,94806.50
2022-08-05T01:51:33.353Z,94815.03
2022-08-05T01:52:32.672Z,94823.81
2022-08-05T01:53:55.108Z,94828.63
2022-08-05T01:55:01.506Z,94793.72
2022-08-05T01:56:04.840Z,94828.91
2022-08-05T01:58:14.737Z,94810.22
2022-08-05T01:58:40.804Z,94820.91
2022-08-05T01:59:47.120Z,94797.44
2022-08-05T02:00:51.670Z,94740.88
2022-08-05T02:01:51.702Z,94801.16
2022-08-05T02:03:04.384Z,94823.81
2022-08-05T02:04:04.781Z,94814.47
2022-08-05T02:05:06.404Z,94792.88
2022-08-05T02:06:33.844Z,94716.38
2022-08-05T02:07:30.426Z,94819.84
2022-08-05T02:08:30.802Z,94808.63
2022-08-05T02:09:28.641Z,94731.28
2022-08-05T02:10:37.241Z,94840.09
2022-08-05T02:11:48.020Z,94827.81
2022-08-05T02:12:58.345Z,94828.09
2022-08-05T02:14:05.391Z,94801.41
2022-08-05T02:15:35.037Z,94827.28
2022-08-05T02:16:53.399Z,94827.53
2022-08-05T02:18:32.282Z,94820.34
2022-08-05T02:19:51.214Z,94823.25
2022-08-05T02:20:54.942Z,94833.94
2022-08-05T02:22:08.656Z,94843.78
2022-08-05T02:23:10.688Z,94801.66
2022-08-05T02:24:14.618Z,94830.47
2022-08-05T02:25:22.189Z,94825.94
2022-08-05T02:26:26.500Z,94809.38
2022-08-05T02:27:30.023Z,94829.41
2022-08-05T02:28:45.866Z,94809.16
2022-08-05T02:30:00.106Z,94679.56
2022-08-05T02:32:24.184Z,94791.81
2022-08-05T02:33:36.250Z,94812.63
2022-08-05T02:34:37.400Z,94812.09
2022-08-05T02:35:50.987Z,94823.25
2022-08-05T02:36:59.756Z,94790.47
2022-08-05T02:38:02.758Z,94803.28
2022-08-05T02:39:04.898Z,94789.94
2022-08-05T02:40:09.598Z,94771.22
2022-08-05T02:41:17.389Z,94815.53
2022-08-05T02:42:25.950Z,94825.13
2022-08-05T02:43:26.768Z,94790.94
2022-08-05T02:44:26.377Z,94825.69
2022-08-05T02:45:25.605Z,94817.41
2022-08-05T02:46:27.426Z,94807.81
2022-08-05T02:47:58.656Z,94830.22
2022-08-05T02:48:48.730Z,94786.47
2022-08-05T02:49:50.823Z,94803.22
2022-08-05T02:50:51.543Z,94793.59
2022-08-05T02:52:03.749Z,94828.28
2022-08-05T02:53:01.958Z,94792.00
2022-08-05T02:54:04.153Z,94832.25
2022-08-05T02:55:05.484Z,94821.28
2022-08-05T02:56:04.555Z,94825.03
2022-08-05T02:57:10.168Z,94758.69
2022-08-05T02:58:26.740Z,94707.25
2022-08-05T02:59:26.995Z,94837.13
2022-08-05T03:00:25.360Z,94840.59
2022-08-05T03:01:25.620Z,94691.28
2022-08-05T03:02:29.601Z,94724.31
2022-08-05T03:03:33.884Z,94746.72
2022-08-05T03:04:53.258Z,94725.84
2022-08-05T03:06:57.244Z,94829.81
2022-08-05T03:07:09.519Z,94827.13
2022-08-05T03:08:29.751Z,94814.91
2022-08-05T03:09:38.301Z,94790.34
2022-08-05T03:10:44.171Z,94814.34
2022-08-05T03:12:01.913Z,94811.66
2022-08-05T03:14:03.255Z,94829.28
2022-08-05T03:15:01.607Z,94789.84
2022-08-05T03:15:58.693Z,94746.38
2022-08-05T03:16:55.488Z,94818.13
2022-08-05T03:17:55.534Z,94833.28
2022-08-05T03:18:53.027Z,94832.03
2022-08-05T03:19:49.867Z,94791.47
2022-08-05T03:20:48.873Z,94753.56
2022-08-05T03:21:48.935Z,94836.28
2022-08-05T03:22:49.826Z,94844.81
2022-08-05T03:23:47.271Z,94786.13
2022-08-05T03:24:50.710Z,94828.84
2022-08-05T03:26:04.366Z,94832.31
2022-08-05T03:27:06.745Z,94781.28
2022-08-05T03:28:07.080Z,94837.31
2022-08-05T03:29:05.424Z,94790.91
2022-08-05T03:30:10.223Z,94771.41
2022-08-05T03:31:07.836Z,94681.00
2022-08-05T03:32:06.214Z,94811.13
2022-08-05T03:33:07.348Z,94811.16
2022-08-05T03:34:05.970Z,94704.19
2022-08-05T03:35:04.451Z,94829.56
2022-08-05T03:36:01.846Z,94735.34
2022-08-05T03:37:05.709Z,94834.88
2022-08-05T03:38:02.914Z,94782.00
2022-08-05T03:39:07.649Z,94810.63
2022-08-05T03:40:08.800Z,94798.91
2022-08-05T03:41:10.782Z,94796.22
2022-08-05T03:42:07.961Z,94687.44
2022-08-05T03:43:58.688Z,94817.00
2022-08-05T03:44:22.891Z,94833.25
2022-08-05T03:45:21.120Z,94842.03
2022-08-05T03:46:18.946Z,94831.44
2022-08-05T03:47:16.138Z,94816.16
2022-08-05T03:48:13.061Z,94846.34
2022-08-05T03:49:18.833Z,94839.22
2022-08-05T03:50:15.547Z,94805.31
2022-08-05T03:52:38.611Z,94838.63
2022-08-05T03:54:59.384Z,94792.22
2022-08-05T03:55:54.145Z,94827.78
2022-08-05T03:56:06.097Z,94748.25
2022-08-05T03:56:52.935Z,94804.25
2022-08-05T03:57:53.668Z,94689.06
2022-08-05T03:58:55.425Z,94832.03
2022-08-05T04:00:01.701Z,94701.38
2022-08-05T04:01:02.231Z,94808.53
2022-08-05T04:02:03.343Z,94777.34
2022-08-05T04:03:05.549Z,94810.75
2022-08-05T04:04:10.237Z,94792.34
2022-08-05T04:05:10.582Z,94742.47
2022-08-05T04:06:08.764Z,94755.78
2022-08-05T04:07:07.126Z,94834.72
2022-08-05T04:08:29.618Z,94809.16
2022-08-05T04:09:29.512Z,94790.47
2022-08-05T04:10:38.296Z,94794.75
2022-08-05T04:11:47.562Z,94824.63
2022-08-05T04:12:47.768Z,94835.03
2022-08-05T04:13:51.161Z,94711.31
2022-08-05T04:14:50.735Z,94826.75
2022-08-05T04:15:52.599Z,94796.34
2022-08-05T04:17:00.521Z,94775.03
2022-08-05T04:18:00.109Z,94839.81
2022-08-05T04:18:57.919Z,94821.13
2022-08-05T04:19:54.814Z,94827.56
2022-08-05T04:20:57.713Z,94794.22
2022-08-05T04:22:10.247Z,94804.09
2022-08-05T04:23:12.513Z,94814.47
2022-08-05T04:24:19.378Z,94800.88
2022-08-05T04:25:19.914Z,94804.38
2022-08-05T04:26:35.398Z,94821.44
2022-08-05T04:27:41.824Z,94822.47
2022-08-05T04:28:51.193Z,94830.75
2022-08-05T04:29:48.935Z,94803.31
2022-08-05T04:30:47.189Z,94824.88
2022-08-05T04:31:46.985Z,94833.69
2022-08-05T04:32:45.473Z,94807.00
2022-08-05T04:34:17.538Z,94816.03
2022-08-05T04:34:59.035Z,94811.19
2022-08-05T04:36:15.760Z,94850.94
2022-08-05T04:37:12.779Z,94741.84
2022-08-05T04:38:10.405Z,94816.44
2022-08-05T04:39:12.490Z,94841.50
2022-08-05T04:40:10.674Z,94845.75
2022-08-05T04:41:09.365Z,94842.56
2022-08-05T04:42:07.236Z,94829.78
2022-08-05T04:43:04.583Z,94839.31
2022-08-05T04:44:01.434Z,94832.38
2022-08-05T04:45:06.986Z,94831.00
2022-08-05T04:46:05.235Z,94811.00
2022-08-05T04:47:08.866Z,94727.88
2022-08-05T04:48:16.413Z,94691.72
2022-08-05T04:49:24.745Z,94776.94
2022-08-05T04:51:03.648Z,94824.94
2022-08-05T04:52:00.778Z,94789.72
2022-08-05T04:52:57.711Z,94827.34
2022-08-05T04:53:54.652Z,94809.25
2022-08-05T04:54:51.433Z,94810.06
2022-08-05T04:56:14.428Z,94827.56
2022-08-05T04:57:05.978Z,94768.06
2022-08-05T04:58:04.106Z,94809.22
2022-08-05T04:59:00.986Z,94723.41
2022-08-05T05:00:18.219Z,94569.88
2022-08-05T05:02:05.987Z,94810.75
2022-08-05T05:02:41.919Z,94819.38
2022-08-05T05:03:42.065Z,94811.69
2022-08-05T05:04:47.804Z,94817.72
2022-08-05T05:06:38.966Z,94812.19
2022-08-05T05:07:03.544Z,94752.72
2022-08-05T05:08:03.303Z,94831.88
2022-08-05T05:09:00.755Z,94819.72
2022-08-05T05:10:05.470Z,94829.06
2022-08-05T05:11:03.233Z,94812.06
2022-08-05T05:12:03.049Z,94824.25
2022-08-05T05:12:59.997Z,94748.50
2022-08-05T05:14:01.057Z,94759.84
2022-08-05T05:14:58.944Z,94765.19
2022-08-05T05:16:05.918Z,94829.56
2022-08-05T05:17:07.643Z,94825.84
2022-08-05T05:18:06.604Z,94833.81
2022-08-05T05:19:18.777Z,94803.41
2022-08-05T05:20:16.372Z,94806.38
2022-08-05T05:21:17.159Z,94837.78
2022-08-05T05:22:24.339Z,94681.69
2022-08-05T05:23:23.394Z,94832.53
2022-08-05T05:24:21.724Z,94837.44
2022-08-05T05:25:18.444Z,94814.06
2022-08-05T05:26:15.285Z,94821.09
2022-08-05T05:27:12.090Z,94822.06
2022-08-05T05:28:14.059Z,94733.25
2022-08-05T05:29:14.853Z,94820.81
2022-08-05T05:30:15.301Z,94816.47
2022-08-05T05:31:13.050Z,94800.41
2022-08-05T05:32:12.691Z,94824.16
2022-08-05T05:33:17.082Z,94837.06
2022-08-05T05:34:14.294Z,94789.59
2022-08-05T05:35:13.388Z,94733.66
2022-08-05T05:36:16.805Z,94822.44
2022-08-05T05:37:15.101Z,94824.13
2022-08-05T05:38:14.114Z,94804.88
2022-08-05T05:39:11.552Z,94805.53
2022-08-05T05:40:09.193Z,94797.84
2022-08-05T05:41:09.293Z,94755.34
2022-08-05T05:42:09.295Z,94820.63
2022-08-05T05:43:08.535Z,94852.34
2022-08-05T05:44:34.440Z,94835.56
2022-08-05T05:45:24.706Z,94747.91
2022-08-05T05:46:21.805Z,94827.44
2022-08-05T05:47:21.693Z,94828.28
2022-08-05T05:48:19.051Z,94803.78
2022-08-05T05:49:24.725Z,94769.88
2022-08-05T05:50:21.490Z,94817.22
2022-08-05T05:51:27.765Z,94817.47
2022-08-05T05:52:28.597Z,94750.00
2022-08-05T05:53:29.565Z,94776.19
2022-08-05T05:54:50.823Z,94816.56
2022-08-05T05:55:51.756Z,94800.78
2022-08-05T05:56:57.832Z,94833.59
2022-08-05T05:57:54.548Z,94823.06
2022-08-05T05:58:58.669Z,94818.28
2022-08-05T06:00:00.407Z,94789.50
2022-08-05T06:00:57.127Z,94767.78
2022-08-05T06:01:57.386Z,94778.13
2022-08-05T06:02:54.885Z,94840.94
2022-08-05T06:04:00.700Z,94820.50
2022-08-05T06:04:59.157Z,94723.94
2022-08-05T06:05:58.247Z,94823.50
2022-08-05T06:06:54.957Z,94840.16
2022-08-05T06:08:01.378Z,94714.66
2022-08-05T06:09:00.625Z,94807.03
2022-08-05T06:10:01.431Z,94839.31
2022-08-05T06:11:01.528Z,94815.59
2022-08-05T06:12:01.191Z,94752.63
2022-08-05T06:12:59.027Z,94812.03
2022-08-05T06:13:56.498Z,94803.59
2022-08-05T06:14:53.262Z,94838.50
2022-08-05T06:16:30.901Z,94800.53
2022-08-05T06:17:22.359Z,94835.94
2022-08-05T06:18:21.658Z,94826.03
2022-08-05T06:19:34.419Z,94823.84
2022-08-05T06:20:32.363Z,94781.00
2022-08-05T06:21:36.579Z,94839.38
2022-08-05T06:22:35.465Z,94833.13
2022-08-05T06:23:44.238Z,94805.19
2022-08-05T06:24:46.655Z,94742.44
2022-08-05T06:26:13.050Z,94807.03
2022-08-05T06:27:04.029Z,94827.69
2022-08-05T06:28:11.727Z,94730.84
2022-08-05T06:29:25.305Z,94813.59
2022-08-05T06:30:34.324Z,94692.72
2022-08-05T06:31:32.256Z,94811.69
2022-08-05T06:32:30.504Z,94832.88
2022-08-05T06:33:44.413Z,94828.47
2022-08-05T06:34:44.433Z,94814.31
2022-08-05T06:36:07.914Z,94781.50
2022-08-05T06:37:00.602Z,94778.34
2022-08-05T06:37:59.545Z,94756.38
2022-08-05T06:38:59.980Z,94777.16
2022-08-05T06:39:56.790Z,94804.91
2022-08-05T06:40:53.530Z,94820.06
2022-08-05T06:41:50.438Z,94825.19
2022-08-05T06:42:52.849Z,94785.72
2022-08-05T06:43:59.154Z,94742.97
2022-08-05T06:44:57.124Z,94812.84
2022-08-05T06:46:07.323Z,94834.41
2022-08-05T06:47:04.358Z,94820.34
2022-08-05T06:48:36.566Z,94828.22
2022-08-05T06:50:01.172Z,94825.81
2022-08-05T06:50:41.627Z,94825.84
2022-08-05T06:51:40.769Z,94817.59
2022-08-05T06:52:40.479Z,94827.81
2022-08-05T06:53:39.381Z,94831.91
2022-08-05T06:54:36.264Z,94830.81
2022-08-05T06:55:36.378Z,94796.25
2022-08-05T06:56:34.781Z,94812.88
2022-08-05T06:57:57.340Z,94828.63
2022-08-05T06:58:48.603Z,94811.91
2022-08-05T06:59:48.485Z,94808.72
2022-08-05T07:00:54.810Z,94811.00
2022-08-05T07:01:53.017Z,94827.84
2022-08-05T07:02:53.682Z,94796.56
2022-08-05T07:03:50.921Z,94793.81
2022-08-05T07:04:47.735Z,94770.81
2022-08-05T07:05:46.389Z,94821.59
2022-08-05T07:06:43.334Z,94722.47
2022-08-05T07:07:43.915Z,94819.78
2022-08-05T07:08:47.920Z,94805.19
2022-08-05T07:09:48.470Z,94832.06
2022-08-05T07:10:55.005Z,94725.41
2022-08-05T07:11:52.229Z,94825.59
2022-08-05T07:13:11.958Z,94837.72
2022-08-05T07:14:32.171Z,94834.16
2022-08-05T07:16:01.958Z,94820.63
2022-08-05T07:18:01.400Z,94809.38
2022-08-05T07:18:22.087Z,94821.81
2022-08-05T07:20:16.846Z,94833.72
2022-08-05T07:20:45.711Z,94822.06
2022-08-05T07:22:00.216Z,94817.53
2022-08-05T07:22:57.962Z,94767.28
2022-08-05T07:23:54.749Z,94834.28
2022-08-05T07:24:52.367Z,94791.41
2022-08-05T07:25:56.195Z,94838.69
2022-08-05T07:26:53.592Z,94807.09
2022-08-05T07:27:57.363Z,94832.72
2022-08-05T07:28:59.657Z,94838.88
2022-08-05T07:30:27.678Z,94833.56
2022-08-05T07:31:17.575Z,94821.69
2022-08-05T07:32:14.660Z,94828.63
2022-08-05T07:33:16.519Z,94824.09
2022-08-05T07:34:14.094Z,94698.84
2022-08-05T07:35:56.047Z,94789.69
2022-08-05T07:36:34.774Z,94812.34
2022-08-05T07:37:36.009Z,94823.84
2022-08-05T07:38:43.645Z,94799.09
2022-08-05T07:40:04.745Z,94827.66
2022-08-05T07:41:00.312Z,94790.16
2022-08-05T07:42:13.588Z,94767.13
2022-08-05T07:43:20.186Z,94807.38
2022-08-05T07:44:19.076Z,94798.66
2022-08-05T07:45:16.866Z,94797.38
2022-08-05T07:46:30.839Z,94734.16
2022-08-05T07:47:27.781Z,94802.69
2022-08-05T07:49:02.217Z,94833.53
2022-08-05T07:49:57.089Z,94762.16
2022-08-05T07:50:55.900Z,94834.16
2022-08-05T07:51:56.435Z,94730.56
2022-08-05T07:52:53.206Z,94824.50
2022-08-05T07:53:51.191Z,94820.84
2022-08-05T07:54:49.199Z,94824.81
2022-08-05T07:56:06.445Z,94815.28
2022-08-05T07:57:41.801Z,94823.38
2022-08-05T07:58:55.012Z,94820.03
2022-08-05T07:59:40.911Z,94812.13
2022-08-05T08:00:38.031Z,94735.81
2022-08-05T08:01:34.814Z,94829.47
2022-08-05T08:03:14.808Z,94828.31
2022-08-05T08:03:48.901Z,94742.34
2022-08-05T08:04:49.643Z,94831.03
2022-08-05T08:05:49.859Z,94822.09
2022-08-05T08:06:46.886Z,94834.19
2022-08-05T08:07:59.591Z,94818.72
2022-08-05T08:08:57.462Z,94825.22
2022-08-05T08:09:55.246Z,94828.84
2022-08-05T08:10:52.076Z,94833.78
2022-08-05T08:12:00.260Z,94826.59
2022-08-05T08:13:01.682Z,94828.81
2022-08-05T08:14:01.094Z,94757.06
2022-08-05T08:15:02.592Z,94829.59
2022-08-05T08:16:35.650Z,94788.56
2022-08-05T08:17:17.081Z,94792.59
2022-08-05T08:18:14.765Z,94802.06
2022-08-05T08:20:10.159Z,94818.41
2022-08-05T08:21:00.033Z,94717.50
2022-08-05T08:21:51.339Z,94835.66
2022-08-05T08:22:56.449Z,94830.72
2022-08-05T08:24:02.684Z,94824.25
2022-08-05T08:25:03.348Z,94813.16
2022-08-05T08:26:04.527Z,94816.88
2022-08-05T08:27:01.964Z,94821.16
2022-08-05T08:28:04.159Z,94836.88
2022-08-05T08:29:21.883Z,94805.06
2022-08-05T08:30:32.912Z,94787.88
2022-08-05T08:31:33.269Z,94824.50
2022-08-05T08:32:30.794Z,94776.88
2022-08-05T08:33:29.359Z,94811.91
2022-08-05T08:34:34.974Z,94827.28
2022-08-05T08:35:35.062Z,94816.38
2022-08-05T08:36:49.926Z,94819.13
2022-08-05T08:37:51.842Z,94795.03
2022-08-05T08:38:55.940Z,94803.22
2022-08-05T08:39:53.698Z,94809.88
2022-08-05T08:40:51.880Z,94816.19
2022-08-05T08:41:51.109Z,94821.06
2022-08-05T08:42:56.597Z,94813.75
2022-08-05T08:45:20.619Z,94819.25
2022-08-05T08:45:23.840Z,94833.91
2022-08-05T08:46:27.414Z,94822.22
2022-08-05T08:48:07.712Z,94817.00
2022-08-05T08:49:07.950Z,94775.63
2022-08-05T08:50:31.765Z,94816.53
2022-08-05T08:52:04.180Z,94794.38
2022-08-05T08:52:53.136Z,94813.38
2022-08-05T08:53:50.221Z,94727.03
2022-08-05T08:54:53.069Z,94749.56
2022-08-05T08:56:03.731Z,94829.91
2022-08-05T08:57:02.530Z,94815.16
2022-08-05T08:58:01.089Z,94815.16
2022-08-05T08:58:59.759Z,94812.84
2022-08-05T08:59:59.102Z,94780.88
2022-08-05T09:00:56.069Z,94737.41
2022-08-05T09:01:57.582Z,94802.66
2022-08-05T09:02:58.298Z,94808.16
2022-08-05T09:03:57.484Z,94814.31
2022-08-05T09:05:17.013Z,94764.00
2022-08-05T09:06:15.808Z,94800.47
2022-08-05T09:07:19.623Z,94805.97
2022-08-05T09:08:26.678Z,94790.47
2022-08-05T09:09:35.566Z,94809.34
2022-08-05T09:10:32.726Z,94804.09
2022-08-05T09:11:53.340Z,94806.09
2022-08-05T09:12:51.089Z,94740.75
2022-08-05T09:14:10.275Z,94645.72
2022-08-05T09:15:07.990Z,94804.00
2022-08-05T09:16:08.243Z,94802.38
2022-08-05T09:17:40.188Z,94692.72
2022-08-05T09:18:32.479Z,94774.31
2022-08-05T09:19:36.267Z,94756.06
2022-08-05T09:20:37.307Z,94693.06
2022-08-05T09:22:23.171Z,94775.06
2022-08-05T09:23:19.839Z,94789.19
2022-08-05T09:24:18.353Z,94773.69
2022-08-05T09:25:24.577Z,94768.47
2022-08-05T09:26:37.011Z,94703.72
2022-08-05T09:28:04.025Z,94771.09
2022-08-05T09:29:00.099Z,94712.06
2022-08-05T09:30:03.317Z,94763.84
2022-08-05T09:31:22.682Z,94764.53
2022-08-05T09:32:51.178Z,94774.69
2022-08-05T09:33:52.391Z,94773.31
2022-08-05T09:34:51.345Z,94766.63
2022-08-05T09:36:11.579Z,94765.75
2022-08-05T09:38:16.620Z,94785.56
2022-08-05T09:39:16.430Z,94761.72
2022-08-05T09:40:36.482Z,94680.00
2022-08-05T09:41:38.311Z,94747.31
2022-08-05T09:42:41.995Z,94771.84
2022-08-05T09:43:41.322Z,94773.69
2022-08-05T09:44:44.742Z,94758.31
2022-08-05T09:46:06.205Z,94741.03
2022-08-05T09:47:36.432Z,94760.38
2022-08-05T09:49:06.625Z,94767.09
2022-08-05T09:50:03.358Z,94735.50
2022-08-05T09:51:15.041Z,94769.59
2022-08-05T09:52:21.948Z,94755.47
2022-08-05T09:53:26.069Z,94740.28
2022-08-05T09:54:36.978Z,94763.25
2022-08-05T09:55:56.675Z,94742.50
2022-08-05T09:56:53.829Z,94753.59
2022-08-05T09:57:54.795Z,94727.03
2022-08-05T09:58:57.310Z,94747.84
2022-08-05T09:59:58.475Z,94754.22
2022-08-05T10:01:13.468Z,94749.97
2022-08-05T10:02:12.282Z,94764.00
2022-08-05T10:03:11.505Z,94754.03
2022-08-05T10:04:15.920Z,94740.91
2022-08-05T10:05:23.601Z,94753.03
2022-08-05T10:06:24.326Z,94748.84
2022-08-05T10:08:10.660Z,94746.25
2022-08-05T10:08:38.970Z,94751.16
2022-08-05T10:10:13.823Z,94740.47
2022-08-05T10:11:17.985Z,94688.34
2022-08-05T10:12:15.014Z,94715.50
2022-08-05T10:13:43.830Z,94732.34
2022-08-05T10:14:42.364Z,94746.13
2022-08-05T10:15:42.000Z,94736.84
2022-08-05T10:16:43.070Z,94730.06
2022-08-05T10:18:16.762Z,94735.75
2022-08-05T10:19:15.995Z,94726.03
2022-08-05T10:20:18.357Z,94739.63
2022-08-05T10:21:16.825Z,94662.34
2022-08-05T10:22:15.804Z,94730.78
2022-08-05T10:23:55.747Z,94736.31
2022-08-05T10:24:45.952Z,94731.09
2022-08-05T10:25:42.949Z,94740.28
2022-08-05T10:26:49.062Z,94728.84
2022-08-05T10:28:12.807Z,94739.78
2022-08-05T10:29:07.901Z,94724.88
2022-08-05T10:30:41.931Z,94646.75
2022-08-05T10:32:53.044Z,94716.72
2022-08-05T10:32:53.843Z,94720.91
2022-08-05T10:33:56.941Z,94750.41
2022-08-05T10:34:55.413Z,94671.75
2022-08-05T10:35:59.994Z,94738.41
2022-08-05T10:36:57.492Z,94641.72
2022-08-05T10:37:55.621Z,94732.97
2022-08-05T10:39:10.051Z,94704.75
2022-08-05T10:40:19.690Z,94708.84
2022-08-05T10:41:44.847Z,94732.78
2022-08-05T10:42:52.150Z,94724.44
2022-08-05T10:44:01.495Z,94737.84
2022-08-05T10:45:21.171Z,94703.63
2022-08-05T10:46:23.956Z,94692.06
2022-08-05T10:47:26.959Z,94684.00
2022-08-05T10:48:56.591Z,94713.81
2022-08-05T10:50:32.005Z,94682.22
2022-08-05T10:51:53.148Z,94707.91
2022-08-05T10:52:58.797Z,94721.03
2022-08-05T10:54:01.860Z,94717.84
2022-08-05T10:55:07.141Z,94705.41
2022-08-05T10:56:21.405Z,94709.16
2022-08-05T10:57:29.399Z,94707.47
2022-08-05T10:58:47.790Z,94693.34
2022-08-05T11:00:02.793Z,94674.91
2022-08-05T11:01:06.474Z,94606.50
2022-08-05T11:02:14.732Z,94636.69
2022-08-05T11:03:30.493Z,94686.34
2022-08-05T11:04:31.090Z,94703.03
2022-08-05T11:05:29.311Z,94575.53
2022-08-05T11:06:31.120Z,94687.00
2022-08-05T11:07:32.792Z,94692.97
2022-08-05T11:09:32.344Z,94693.25
2022-08-05T11:10:50.283Z,94512.28
2022-08-05T11:11:58.105Z,94706.06
2022-08-05T11:12:57.000Z,94668.22
2022-08-05T11:13:58.357Z,94590.78
2022-08-05T11:15:19.208Z,94694.50
2022-08-05T11:16:34.041Z,94619.94
2022-08-05T11:18:09.513Z,94695.22
2022-08-05T11:20:10.193Z,94689.97
2022-08-05T11:20:47.473Z,94654.75
2022-08-05T11:21:49.103Z,94661.97
2022-08-05T11:22:50.023Z,94684.81
2022-08-05T11:24:04.751Z,94677.69
2022-08-05T11:26:04.656Z,94687.44
2022-08-05T11:27:45.763Z,94688.00
2022-08-05T11:28:49.979Z,94675.00
2022-08-05T11:29:59.825Z,94669.25
2022-08-05T11:31:01.446Z,94688.81
2022-08-05T11:32:24.877Z,94662.34
2022-08-05T11:33:46.247Z,94672.28
2022-08-05T11:34:52.063Z,94680.31
2022-08-05T11:36:08.132Z,94554.97
2022-08-05T11:38:26.219Z,94677.44
2022-08-05T11:38:45.401Z,94680.31
2022-08-05T11:40:00.749Z,94553.88
2022-08-05T11:41:35.289Z,94687.28
2022-08-05T11:42:27.899Z,94569.88
2022-08-05T11:43:58.447Z,94600.00
2022-08-05T11:44:53.766Z,94680.56
2022-08-05T11:46:15.594Z,94687.75
2022-08-05T11:47:14.052Z,94675.97
2022-08-05T11:48:13.022Z,94669.47
2022-08-05T11:49:13.975Z,94671.75
2022-08-05T11:50:14.274Z,94670.81
2022-08-05T11:51:11.369Z,94660.66
2022-08-05T11:52:31.044Z,94573.63
2022-08-05T11:53:29.881Z,94664.03
2022-08-05T11:54:38.345Z,94664.91
2022-08-05T11:55:37.681Z,94680.41
2022-08-05T11:56:52.361Z,94680.31
2022-08-05T11:58:09.298Z,94667.09
2022-08-05T11:59:13.586Z,94654.25
2022-08-05T12:00:31.111Z,94576.16
2022-08-05T12:01:27.832Z,94675.91
2022-08-05T12:02:31.181Z,94671.28
2022-08-05T12:03:32.007Z,94667.28
2022-08-05T12:04:44.291Z,94678.56
2022-08-05T12:06:06.491Z,94673.50
2022-08-05T12:07:09.401Z,94540.13
2022-08-05T12:08:09.665Z,94682.03
2022-08-05T12:09:07.553Z,94666.72
2022-08-05T12:10:11.830Z,94578.09
2022-08-05T12:11:10.300Z,94671.53
2022-08-05T12:12:24.416Z,94550.88
2022-08-05T12:13:48.033Z,94665.47
2022-08-05T12:14:43.232Z,94629.63
2022-08-05T12:15:44.208Z,94575.38
2022-08-05T12:16:45.600Z,94610.31
2022-08-05T12:18:04.372Z,94664.47
2022-08-05T12:19:00.197Z,94657.34
2022-08-05T12:20:25.960Z,94651.19
2022-08-05T12:21:29.922Z,94662.28
2022-08-05T12:22:29.841Z,94667.09
2022-08-05T12:23:28.981Z,94636.56
2022-08-05T12:24:26.444Z,94647.44
2022-08-05T12:25:28.177Z,94653.03
2022-08-05T12:26:34.605Z,94649.97
2022-08-05T12:27:35.514Z,94659.19
2022-08-05T12:28:49.700Z,94559.97
2022-08-05T12:29:46.444Z,94636.56
2022-08-05T12:30:53.675Z,94663.66
2022-08-05T12:31:55.325Z,94661.53
2022-08-05T12:32:56.376Z,94646.19
2022-08-05T12:33:54.978Z,94616.78
2022-08-05T12:34:52.313Z,94654.00
2022-08-05T12:35:49.774Z,94552.59
2022-08-05T12:36:53.482Z,94658.59
2022-08-05T12:37:53.363Z,94661.03
2022-08-05T12:38:52.615Z,94661.72
2022-08-05T12:39:54.004Z,94650.66
2022-08-05T12:40:51.225Z,94638.97
2022-08-05T12:41:48.745Z,94647.13
2022-08-05T12:42:46.034Z,94631.00
2022-08-05T12:43:56.502Z,94609.97
2022-08-05T12:45:10.678Z,94631.78
2022-08-05T12:46:07.390Z,94610.28
2022-08-05T12:47:12.457Z,94649.34
2022-08-05T12:48:26.818Z,94613.31
2022-08-05T12:49:25.591Z,94629.25
2022-08-05T12:50:23.858Z,94615.66
2022-08-05T12:52:13.117Z,94539.13
2022-08-05T12:52:42.695Z,94628.94